sensor_id;sensor_type;location;lat;lon;timestamp;P1;durP1;ratioP1;P2;durP2;ratioP2
77018;SDS011;66044;53.142;17.962;2023-05-10T00:01:42;6.60;;;2.30;;
77018;SDS011;66044;53.142;17.962;2023-05-10T00:04:08;8.20;;;3.30;;
77018;SDS011;66044;53.142;17.962;2023-05-10T00:06:35;7.90;;;2.80;;
77018;SDS011;66044;53.142;17.962;2023-05-10T00:09:01;8.10;;;2.90;;
77018;SDS011;66044;53.142;17.962;2023-05-10T00:11:28;7.90;;;3.10;;
77018;SDS011;66044;53.142;17.962;2023-05-10T00:13:54;8.80;;;2.80;;
77018;SDS011;66044;53.142;17.962;2023-05-10T00:16:21;8.60;;;3.10;;
77018;SDS011;66044;53.142;17.962;2023-05-10T00:18:47;6.40;;;2.70;;
77018;SDS011;66044;53.142;17.962;2023-05-10T00:21:14;6.70;;;2.40;;
77018;SDS011;66044;53.142;17.962;2023-05-10T00:23:40;6.30;;;2.50;;
77018;SDS011;66044;53.142;17.962;2023-05-10T00:26:07;7.40;;;3.50;;
77018;SDS011;66044;53.142;17.962;2023-05-10T00:28:33;7.20;;;2.70;;
77018;SDS011;66044;53.142;17.962;2023-05-10T00:31:00;7.90;;;1.80;;
77018;SDS011;66044;53.142;17.962;2023-05-10T00:33:26;7.60;;;2.80;;
77018;SDS011;66044;53.142;17.962;2023-05-10T00:35:53;6.80;;;2.90;;
77018;SDS011;66044;53.142;17.962;2023-05-10T00:38:19;8.60;;;2.90;;
77018;SDS011;66044;53.142;17.962;2023-05-10T00:40:45;9.90;;;2.90;;
77018;SDS011;66044;53.142;17.962;2023-05-10T00:43:12;9.20;;;3.20;;
77018;SDS011;66044;53.142;17.962;2023-05-10T00:45:39;8.10;;;3.80;;
77018;SDS011;66044;53.142;17.962;2023-05-10T00:48:06;11.30;;;3.40;;
77018;SDS011;66044;53.142;17.962;2023-05-10T00:50:32;8.70;;;3.40;;
77018;SDS011;66044;53.142;17.962;2023-05-10T00:52:59;8.70;;;3.50;;
77018;SDS011;66044;53.142;17.962;2023-05-10T00:55:27;8.70;;;3.20;;
77018;SDS011;66044;53.142;17.962;2023-05-10T00:57:53;10.10;;;4.00;;
77018;SDS011;66044;53.142;17.962;2023-05-10T01:00:20;9.60;;;3.80;;
77018;SDS011;66044;53.142;17.962;2023-05-10T01:02:47;8.20;;;3.30;;
77018;SDS011;66044;53.142;17.962;2023-05-10T01:05:14;7.50;;;3.30;;
77018;SDS011;66044;53.142;17.962;2023-05-10T01:07:40;8.10;;;3.30;;
77018;SDS011;66044;53.142;17.962;2023-05-10T01:10:07;8.60;;;3.40;;
77018;SDS011;66044;53.142;17.962;2023-05-10T01:12:35;8.20;;;3.50;;
77018;SDS011;66044;53.142;17.962;2023-05-10T01:15:05;11.40;;;3.80;;
77018;SDS011;66044;53.142;17.962;2023-05-10T01:17:34;7.50;;;3.20;;
77018;SDS011;66044;53.142;17.962;2023-05-10T01:20:03;8.90;;;3.70;;
77018;SDS011;66044;53.142;17.962;2023-05-10T01:28:13;8.90;;;3.60;;
77018;SDS011;66044;53.142;17.962;2023-05-10T01:33:39;6.80;;;2.80;;
77018;SDS011;66044;53.142;17.962;2023-05-10T01:39:01;8.50;;;3.30;;
77018;SDS011;66044;53.142;17.962;2023-05-10T01:41:36;9.40;;;3.60;;
77018;SDS011;66044;53.142;17.962;2023-05-10T01:44:12;6.50;;;3.00;;
77018;SDS011;66044;53.142;17.962;2023-05-10T01:46:48;8.00;;;3.10;;
77018;SDS011;66044;53.142;17.962;2023-05-10T01:49:25;8.70;;;2.60;;
77018;SDS011;66044;53.142;17.962;2023-05-10T01:52:04;7.90;;;2.60;;
77018;SDS011;66044;53.142;17.962;2023-05-10T01:54:35;7.60;;;2.60;;
77018;SDS011;66044;53.142;17.962;2023-05-10T01:57:07;7.70;;;2.80;;
77018;SDS011;66044;53.142;17.962;2023-05-10T01:59:38;7.10;;;3.10;;
77018;SDS011;66044;53.142;17.962;2023-05-10T02:02:09;8.10;;;3.20;;
77018;SDS011;66044;53.142;17.962;2023-05-10T02:04:38;7.60;;;3.10;;
77018;SDS011;66044;53.142;17.962;2023-05-10T02:07:06;9.60;;;3.30;;
77018;SDS011;66044;53.142;17.962;2023-05-10T02:09:34;7.00;;;2.70;;
77018;SDS011;66044;53.142;17.962;2023-05-10T02:12:02;9.00;;;3.20;;
77018;SDS011;66044;53.142;17.962;2023-05-10T02:14:32;7.70;;;2.80;;
77018;SDS011;66044;53.142;17.962;2023-05-10T02:17:02;8.10;;;3.40;;
77018;SDS011;66044;53.142;17.962;2023-05-10T02:19:31;6.80;;;2.60;;
77018;SDS011;66044;53.142;17.962;2023-05-10T02:21:59;7.90;;;3.10;;
77018;SDS011;66044;53.142;17.962;2023-05-10T02:24:28;7.30;;;3.50;;
77018;SDS011;66044;53.142;17.962;2023-05-10T02:26:55;8.10;;;3.30;;
77018;SDS011;66044;53.142;17.962;2023-05-10T02:29:25;7.00;;;2.50;;
77018;SDS011;66044;53.142;17.962;2023-05-10T02:31:54;8.80;;;3.50;;
77018;SDS011;66044;53.142;17.962;2023-05-10T02:34:21;8.90;;;3.80;;
77018;SDS011;66044;53.142;17.962;2023-05-10T02:36:50;9.90;;;3.10;;
77018;SDS011;66044;53.142;17.962;2023-05-10T02:39:18;8.90;;;3.80;;
77018;SDS011;66044;53.142;17.962;2023-05-10T02:41:46;8.50;;;3.50;;
77018;SDS011;66044;53.142;17.962;2023-05-10T02:44:15;7.00;;;3.10;;
77018;SDS011;66044;53.142;17.962;2023-05-10T02:46:44;8.50;;;3.40;;
77018;SDS011;66044;53.142;17.962;2023-05-10T02:49:11;10.50;;;4.00;;
77018;SDS011;66044;53.142;17.962;2023-05-10T02:51:39;8.20;;;3.20;;
77018;SDS011;66044;53.142;17.962;2023-05-10T02:54:15;9.20;;;3.90;;
77018;SDS011;66044;53.142;17.962;2023-05-10T02:56:50;6.70;;;3.00;;
77018;SDS011;66044;53.142;17.962;2023-05-10T02:59:19;8.00;;;3.00;;
77018;SDS011;66044;53.142;17.962;2023-05-10T03:01:46;8.30;;;3.30;;
77018;SDS011;66044;53.142;17.962;2023-05-10T03:04:12;8.00;;;3.00;;
77018;SDS011;66044;53.142;17.962;2023-05-10T03:06:39;7.80;;;3.20;;
77018;SDS011;66044;53.142;17.962;2023-05-10T03:09:06;8.50;;;2.70;;
77018;SDS011;66044;53.142;17.962;2023-05-10T03:17:10;7.20;;;3.20;;
77018;SDS011;66044;53.142;17.962;2023-05-10T03:19:48;7.50;;;2.70;;
77018;SDS011;66044;53.142;17.962;2023-05-10T03:22:21;9.20;;;3.20;;
77018;SDS011;66044;53.142;17.962;2023-05-10T03:24:55;9.70;;;3.10;;
77018;SDS011;66044;53.142;17.962;2023-05-10T03:27:23;6.80;;;2.70;;
77018;SDS011;66044;53.142;17.962;2023-05-10T03:29:52;8.50;;;3.10;;
77018;SDS011;66044;53.142;17.962;2023-05-10T03:32:21;7.30;;;3.10;;
77018;SDS011;66044;53.142;17.962;2023-05-10T03:34:48;9.90;;;3.00;;
77018;SDS011;66044;53.142;17.962;2023-05-10T03:37:15;7.00;;;2.60;;
77018;SDS011;66044;53.142;17.962;2023-05-10T03:39:41;8.70;;;3.00;;
77018;SDS011;66044;53.142;17.962;2023-05-10T03:42:08;11.80;;;3.60;;
77018;SDS011;66044;53.142;17.962;2023-05-10T03:44:34;8.50;;;3.20;;
77018;SDS011;66044;53.142;17.962;2023-05-10T03:47:00;9.00;;;3.00;;
77018;SDS011;66044;53.142;17.962;2023-05-10T03:49:27;7.30;;;2.80;;
77018;SDS011;66044;53.142;17.962;2023-05-10T03:51:53;7.40;;;3.10;;
77018;SDS011;66044;53.142;17.962;2023-05-10T03:54:20;9.70;;;3.80;;
77018;SDS011;66044;53.142;17.962;2023-05-10T03:56:46;8.50;;;3.20;;
77018;SDS011;66044;53.142;17.962;2023-05-10T03:59:14;9.50;;;3.50;;
77018;SDS011;66044;53.142;17.962;2023-05-10T04:01:40;8.90;;;3.50;;
77018;SDS011;66044;53.142;17.962;2023-05-10T04:04:06;8.60;;;3.50;;
77018;SDS011;66044;53.142;17.962;2023-05-10T04:06:33;9.70;;;3.90;;
77018;SDS011;66044;53.142;17.962;2023-05-10T04:08:59;8.50;;;3.30;;
77018;SDS011;66044;53.142;17.962;2023-05-10T04:11:30;8.90;;;3.60;;
77018;SDS011;66044;53.142;17.962;2023-05-10T04:13:56;9.00;;;3.10;;
77018;SDS011;66044;53.142;17.962;2023-05-10T04:16:23;8.00;;;3.20;;
77018;SDS011;66044;53.142;17.962;2023-05-10T04:18:49;7.20;;;3.00;;
77018;SDS011;66044;53.142;17.962;2023-05-10T04:21:15;6.60;;;2.70;;
77018;SDS011;66044;53.142;17.962;2023-05-10T04:23:42;7.70;;;3.10;;
77018;SDS011;66044;53.142;17.962;2023-05-10T04:26:08;7.50;;;2.50;;
77018;SDS011;66044;53.142;17.962;2023-05-10T04:28:35;11.10;;;3.30;;
77018;SDS011;66044;53.142;17.962;2023-05-10T04:31:10;7.90;;;2.80;;
77018;SDS011;66044;53.142;17.962;2023-05-10T04:33:37;7.40;;;2.90;;
77018;SDS011;66044;53.142;17.962;2023-05-10T04:36:03;8.80;;;3.60;;
77018;SDS011;66044;53.142;17.962;2023-05-10T04:38:30;7.80;;;3.40;;
77018;SDS011;66044;53.142;17.962;2023-05-10T04:41:04;9.10;;;3.40;;
77018;SDS011;66044;53.142;17.962;2023-05-10T04:43:31;7.90;;;3.40;;
77018;SDS011;66044;53.142;17.962;2023-05-10T04:45:58;8.10;;;3.40;;
77018;SDS011;66044;53.142;17.962;2023-05-10T04:48:24;8.20;;;3.30;;
77018;SDS011;66044;53.142;17.962;2023-05-10T04:50:51;7.90;;;3.10;;
77018;SDS011;66044;53.142;17.962;2023-05-10T04:53:17;7.50;;;2.80;;
77018;SDS011;66044;53.142;17.962;2023-05-10T04:55:44;9.60;;;3.30;;
77018;SDS011;66044;53.142;17.962;2023-05-10T04:58:10;9.30;;;3.10;;
77018;SDS011;66044;53.142;17.962;2023-05-10T05:00:37;8.20;;;2.90;;
77018;SDS011;66044;53.142;17.962;2023-05-10T05:03:03;7.20;;;2.70;;
77018;SDS011;66044;53.142;17.962;2023-05-10T05:05:30;8.30;;;2.90;;
77018;SDS011;66044;53.142;17.962;2023-05-10T05:07:56;6.60;;;2.70;;
77018;SDS011;66044;53.142;17.962;2023-05-10T05:10:23;7.30;;;2.40;;
77018;SDS011;66044;53.142;17.962;2023-05-10T05:12:50;8.00;;;3.10;;
77018;SDS011;66044;53.142;17.962;2023-05-10T05:15:16;8.20;;;2.70;;
77018;SDS011;66044;53.142;17.962;2023-05-10T05:17:43;7.00;;;2.90;;
77018;SDS011;66044;53.142;17.962;2023-05-10T05:20:10;7.00;;;2.30;;
77018;SDS011;66044;53.142;17.962;2023-05-10T05:22:37;7.80;;;2.60;;
77018;SDS011;66044;53.142;17.962;2023-05-10T05:25:03;7.60;;;2.70;;
77018;SDS011;66044;53.142;17.962;2023-05-10T05:27:30;6.70;;;2.30;;
77018;SDS011;66044;53.142;17.962;2023-05-10T05:29:57;7.10;;;2.10;;
77018;SDS011;66044;53.142;17.962;2023-05-10T05:32:24;7.00;;;2.40;;
77018;SDS011;66044;53.142;17.962;2023-05-10T05:34:51;8.90;;;2.60;;
77018;SDS011;66044;53.142;17.962;2023-05-10T05:37:19;7.90;;;2.50;;
77018;SDS011;66044;53.142;17.962;2023-05-10T05:39:47;7.40;;;2.20;;
77018;SDS011;66044;53.142;17.962;2023-05-10T05:42:14;6.70;;;2.10;;
77018;SDS011;66044;53.142;17.962;2023-05-10T05:44:42;8.00;;;2.70;;
77018;SDS011;66044;53.142;17.962;2023-05-10T05:47:09;7.80;;;2.40;;
77018;SDS011;66044;53.142;17.962;2023-05-10T05:49:36;7.50;;;2.40;;
77018;SDS011;66044;53.142;17.962;2023-05-10T05:52:03;6.70;;;2.20;;
77018;SDS011;66044;53.142;17.962;2023-05-10T05:54:30;7.20;;;2.10;;
77018;SDS011;66044;53.142;17.962;2023-05-10T05:56:57;6.60;;;2.10;;
77018;SDS011;66044;53.142;17.962;2023-05-10T05:59:25;6.50;;;2.20;;
77018;SDS011;66044;53.142;17.962;2023-05-10T06:01:52;8.30;;;2.30;;
77018;SDS011;66044;53.142;17.962;2023-05-10T06:04:18;6.20;;;1.80;;
77018;SDS011;66044;53.142;17.962;2023-05-10T06:06:45;5.60;;;1.90;;
77018;SDS011;66044;53.142;17.962;2023-05-10T06:09:12;6.00;;;1.80;;
77018;SDS011;66044;53.142;17.962;2023-05-10T06:11:38;7.00;;;1.90;;
77018;SDS011;66044;53.142;17.962;2023-05-10T06:14:05;6.50;;;1.70;;
77018;SDS011;66044;53.142;17.962;2023-05-10T06:16:33;5.70;;;1.70;;
77018;SDS011;66044;53.142;17.962;2023-05-10T06:19:00;5.70;;;2.10;;
77018;SDS011;66044;53.142;17.962;2023-05-10T06:21:27;7.20;;;2.00;;
77018;SDS011;66044;53.142;17.962;2023-05-10T06:23:53;5.30;;;1.80;;
77018;SDS011;66044;53.142;17.962;2023-05-10T06:26:20;7.90;;;1.80;;
77018;SDS011;66044;53.142;17.962;2023-05-10T06:28:47;6.90;;;1.50;;
77018;SDS011;66044;53.142;17.962;2023-05-10T06:31:13;6.00;;;2.00;;
77018;SDS011;66044;53.142;17.962;2023-05-10T06:33:39;5.40;;;1.50;;
77018;SDS011;66044;53.142;17.962;2023-05-10T06:36:06;6.50;;;1.60;;
77018;SDS011;66044;53.142;17.962;2023-05-10T06:38:33;5.80;;;1.60;;
77018;SDS011;66044;53.142;17.962;2023-05-10T06:40:59;5.70;;;1.70;;
77018;SDS011;66044;53.142;17.962;2023-05-10T06:43:26;6.30;;;1.80;;
77018;SDS011;66044;53.142;17.962;2023-05-10T06:45:54;6.20;;;1.70;;
77018;SDS011;66044;53.142;17.962;2023-05-10T06:48:21;5.30;;;1.50;;
77018;SDS011;66044;53.142;17.962;2023-05-10T06:50:47;6.00;;;1.60;;
77018;SDS011;66044;53.142;17.962;2023-05-10T06:53:13;5.80;;;1.80;;
77018;SDS011;66044;53.142;17.962;2023-05-10T06:55:40;9.00;;;2.00;;
77018;SDS011;66044;53.142;17.962;2023-05-10T06:58:06;10.90;;;1.80;;
77018;SDS011;66044;53.142;17.962;2023-05-10T07:00:33;5.80;;;1.60;;
77018;SDS011;66044;53.142;17.962;2023-05-10T07:02:59;4.60;;;1.50;;
77018;SDS011;66044;53.142;17.962;2023-05-10T07:05:25;5.90;;;1.50;;
77018;SDS011;66044;53.142;17.962;2023-05-10T07:07:53;5.70;;;1.50;;
77018;SDS011;66044;53.142;17.962;2023-05-10T07:10:20;5.20;;;1.40;;
77018;SDS011;66044;53.142;17.962;2023-05-10T07:12:46;6.20;;;1.60;;
77018;SDS011;66044;53.142;17.962;2023-05-10T07:15:13;4.90;;;1.20;;
77018;SDS011;66044;53.142;17.962;2023-05-10T07:17:39;5.90;;;1.60;;
77018;SDS011;66044;53.142;17.962;2023-05-10T07:20:06;5.90;;;1.60;;
77018;SDS011;66044;53.142;17.962;2023-05-10T07:22:33;4.80;;;1.70;;
77018;SDS011;66044;53.142;17.962;2023-05-10T07:24:59;6.30;;;1.30;;
77018;SDS011;66044;53.142;17.962;2023-05-10T07:27:26;4.60;;;1.40;;
77018;SDS011;66044;53.142;17.962;2023-05-10T07:29:52;4.80;;;1.40;;
77018;SDS011;66044;53.142;17.962;2023-05-10T07:32:18;6.50;;;1.70;;
77018;SDS011;66044;53.142;17.962;2023-05-10T07:34:45;7.70;;;1.40;;
77018;SDS011;66044;53.142;17.962;2023-05-10T07:37:11;5.70;;;1.50;;
77018;SDS011;66044;53.142;17.962;2023-05-10T07:39:38;4.40;;;1.20;;
77018;SDS011;66044;53.142;17.962;2023-05-10T07:42:04;6.90;;;1.60;;
77018;SDS011;66044;53.142;17.962;2023-05-10T07:44:31;5.40;;;1.30;;
77018;SDS011;66044;53.142;17.962;2023-05-10T07:46:58;6.60;;;1.40;;
77018;SDS011;66044;53.142;17.962;2023-05-10T07:49:25;5.30;;;1.80;;
77018;SDS011;66044;53.142;17.962;2023-05-10T07:51:51;6.00;;;1.60;;
77018;SDS011;66044;53.142;17.962;2023-05-10T07:54:18;6.00;;;1.50;;
77018;SDS011;66044;53.142;17.962;2023-05-10T07:56:44;6.50;;;1.40;;
77018;SDS011;66044;53.142;17.962;2023-05-10T07:59:14;5.60;;;1.50;;
77018;SDS011;66044;53.142;17.962;2023-05-10T08:01:42;6.70;;;1.80;;
77018;SDS011;66044;53.142;17.962;2023-05-10T08:04:09;6.60;;;1.90;;
77018;SDS011;66044;53.142;17.962;2023-05-10T08:06:35;6.00;;;1.70;;
77018;SDS011;66044;53.142;17.962;2023-05-10T08:09:02;5.40;;;1.80;;
77018;SDS011;66044;53.142;17.962;2023-05-10T08:11:28;6.20;;;1.70;;
77018;SDS011;66044;53.142;17.962;2023-05-10T08:13:55;6.60;;;1.60;;
77018;SDS011;66044;53.142;17.962;2023-05-10T08:16:21;7.30;;;1.80;;
77018;SDS011;66044;53.142;17.962;2023-05-10T08:18:48;5.60;;;2.00;;
77018;SDS011;66044;53.142;17.962;2023-05-10T08:21:15;7.30;;;2.00;;
77018;SDS011;66044;53.142;17.962;2023-05-10T08:23:42;5.30;;;1.60;;
77018;SDS011;66044;53.142;17.962;2023-05-10T08:26:09;6.80;;;2.10;;
77018;SDS011;66044;53.142;17.962;2023-05-10T08:28:36;9.40;;;2.10;;
77018;SDS011;66044;53.142;17.962;2023-05-10T08:31:03;9.00;;;2.00;;
77018;SDS011;66044;53.142;17.962;2023-05-10T08:33:30;6.50;;;1.90;;
77018;SDS011;66044;53.142;17.962;2023-05-10T08:35:57;5.70;;;1.70;;
77018;SDS011;66044;53.142;17.962;2023-05-10T08:38:23;7.40;;;1.90;;
77018;SDS011;66044;53.142;17.962;2023-05-10T08:40:49;9.40;;;2.10;;
77018;SDS011;66044;53.142;17.962;2023-05-10T08:43:22;6.00;;;2.10;;
77018;SDS011;66044;53.142;17.962;2023-05-10T08:45:53;6.60;;;1.90;;
77018;SDS011;66044;53.142;17.962;2023-05-10T08:48:23;6.50;;;2.00;;
77018;SDS011;66044;53.142;17.962;2023-05-10T08:50:52;5.80;;;2.10;;
77018;SDS011;66044;53.142;17.962;2023-05-10T08:53:19;5.50;;;1.70;;
77018;SDS011;66044;53.142;17.962;2023-05-10T08:55:47;6.30;;;2.00;;
77018;SDS011;66044;53.142;17.962;2023-05-10T08:58:14;5.70;;;1.90;;
77018;SDS011;66044;53.142;17.962;2023-05-10T09:00:41;4.80;;;1.70;;
77018;SDS011;66044;53.142;17.962;2023-05-10T09:03:07;7.10;;;1.90;;
77018;SDS011;66044;53.142;17.962;2023-05-10T09:05:35;7.00;;;1.70;;
77018;SDS011;66044;53.142;17.962;2023-05-10T09:08:02;7.10;;;2.00;;
77018;SDS011;66044;53.142;17.962;2023-05-10T09:10:28;6.20;;;1.90;;
77018;SDS011;66044;53.142;17.962;2023-05-10T09:12:56;6.10;;;1.80;;
77018;SDS011;66044;53.142;17.962;2023-05-10T09:15:24;6.30;;;1.70;;
77018;SDS011;66044;53.142;17.962;2023-05-10T09:17:50;7.90;;;1.90;;
77018;SDS011;66044;53.142;17.962;2023-05-10T09:20:17;6.90;;;1.80;;
77018;SDS011;66044;53.142;17.962;2023-05-10T09:22:43;7.50;;;2.00;;
77018;SDS011;66044;53.142;17.962;2023-05-10T09:25:11;7.00;;;2.10;;
77018;SDS011;66044;53.142;17.962;2023-05-10T09:27:40;9.00;;;1.70;;
77018;SDS011;66044;53.142;17.962;2023-05-10T09:30:14;6.20;;;1.90;;
77018;SDS011;66044;53.142;17.962;2023-05-10T09:32:50;7.90;;;2.30;;
77018;SDS011;66044;53.142;17.962;2023-05-10T09:35:17;5.60;;;1.50;;
77018;SDS011;66044;53.142;17.962;2023-05-10T09:37:49;5.60;;;2.00;;
77018;SDS011;66044;53.142;17.962;2023-05-10T09:40:17;7.70;;;1.70;;
77018;SDS011;66044;53.142;17.962;2023-05-10T09:42:55;6.20;;;1.70;;
77018;SDS011;66044;53.142;17.962;2023-05-10T09:45:24;10.40;;;2.00;;
77018;SDS011;66044;53.142;17.962;2023-05-10T09:47:55;5.60;;;2.20;;
77018;SDS011;66044;53.142;17.962;2023-05-10T09:50:22;8.80;;;2.90;;
77018;SDS011;66044;53.142;17.962;2023-05-10T09:52:53;5.60;;;1.90;;
77018;SDS011;66044;53.142;17.962;2023-05-10T09:55:21;6.30;;;1.80;;
77018;SDS011;66044;53.142;17.962;2023-05-10T09:57:49;7.00;;;2.00;;
77018;SDS011;66044;53.142;17.962;2023-05-10T10:00:24;6.20;;;1.60;;
77018;SDS011;66044;53.142;17.962;2023-05-10T10:02:54;8.40;;;1.80;;
77018;SDS011;66044;53.142;17.962;2023-05-10T10:05:28;6.90;;;2.60;;
77018;SDS011;66044;53.142;17.962;2023-05-10T10:07:59;5.50;;;1.90;;
77018;SDS011;66044;53.142;17.962;2023-05-10T10:10:27;7.50;;;2.10;;
77018;SDS011;66044;53.142;17.962;2023-05-10T10:12:54;8.50;;;1.80;;
77018;SDS011;66044;53.142;17.962;2023-05-10T10:15:21;6.40;;;1.80;;
77018;SDS011;66044;53.142;17.962;2023-05-10T10:17:49;5.70;;;1.70;;
77018;SDS011;66044;53.142;17.962;2023-05-10T10:20:17;9.60;;;2.80;;
77018;SDS011;66044;53.142;17.962;2023-05-10T10:22:45;10.50;;;4.40;;
77018;SDS011;66044;53.142;17.962;2023-05-10T10:25:13;10.40;;;2.40;;
77018;SDS011;66044;53.142;17.962;2023-05-10T10:35:57;7.00;;;2.00;;
77018;SDS011;66044;53.142;17.962;2023-05-10T10:38:34;6.70;;;1.80;;
77018;SDS011;66044;53.142;17.962;2023-05-10T10:41:08;10.20;;;2.10;;
77018;SDS011;66044;53.142;17.962;2023-05-10T10:43:36;7.30;;;2.20;;
77018;SDS011;66044;53.142;17.962;2023-05-10T10:46:15;6.20;;;2.10;;
77018;SDS011;66044;53.142;17.962;2023-05-10T10:48:50;8.90;;;2.10;;
77018;SDS011;66044;53.142;17.962;2023-05-10T10:51:39;7.90;;;1.80;;
77018;SDS011;66044;53.142;17.962;2023-05-10T10:54:29;5.90;;;1.80;;
77018;SDS011;66044;53.142;17.962;2023-05-10T10:57:11;5.80;;;1.90;;
77018;SDS011;66044;53.142;17.962;2023-05-10T10:59:44;8.30;;;2.00;;
77018;SDS011;66044;53.142;17.962;2023-05-10T11:05:23;8.60;;;2.20;;
77018;SDS011;66044;53.142;17.962;2023-05-10T11:07:56;7.50;;;1.80;;
77018;SDS011;66044;53.142;17.962;2023-05-10T11:10:24;6.50;;;1.60;;
77018;SDS011;66044;53.142;17.962;2023-05-10T11:12:53;7.50;;;2.40;;
77018;SDS011;66044;53.142;17.962;2023-05-10T11:15:37;6.30;;;1.80;;
77018;SDS011;66044;53.142;17.962;2023-05-10T11:18:17;7.10;;;2.00;;
77018;SDS011;66044;53.142;17.962;2023-05-10T11:21:19;7.30;;;2.20;;
77018;SDS011;66044;53.142;17.962;2023-05-10T11:26:07;7.20;;;2.00;;
77018;SDS011;66044;53.142;17.962;2023-05-10T11:28:47;6.90;;;1.90;;
77018;SDS011;66044;53.142;17.962;2023-05-10T11:31:14;7.60;;;1.90;;
77018;SDS011;66044;53.142;17.962;2023-05-10T11:33:42;8.30;;;2.10;;
77018;SDS011;66044;53.142;17.962;2023-05-10T11:36:21;6.30;;;2.10;;
77018;SDS011;66044;53.142;17.962;2023-05-10T11:38:49;8.30;;;2.40;;
77018;SDS011;66044;53.142;17.962;2023-05-10T11:41:17;7.20;;;2.00;;
77018;SDS011;66044;53.142;17.962;2023-05-10T11:43:48;8.70;;;2.40;;
77018;SDS011;66044;53.142;17.962;2023-05-10T11:46:18;6.30;;;2.20;;
77018;SDS011;66044;53.142;17.962;2023-05-10T11:48:47;7.70;;;2.20;;
77018;SDS011;66044;53.142;17.962;2023-05-10T11:51:20;8.70;;;2.40;;
77018;SDS011;66044;53.142;17.962;2023-05-10T11:53:49;7.10;;;2.20;;
77018;SDS011;66044;53.142;17.962;2023-05-10T11:56:16;7.60;;;1.90;;
77018;SDS011;66044;53.142;17.962;2023-05-10T11:58:43;8.00;;;2.00;;
77018;SDS011;66044;53.142;17.962;2023-05-10T12:01:09;11.00;;;2.10;;
77018;SDS011;66044;53.142;17.962;2023-05-10T12:03:36;6.70;;;1.60;;
77018;SDS011;66044;53.142;17.962;2023-05-10T12:06:03;5.30;;;1.60;;
77018;SDS011;66044;53.142;17.962;2023-05-10T12:08:30;6.60;;;1.90;;
77018;SDS011;66044;53.142;17.962;2023-05-10T12:11:06;7.60;;;1.70;;
77018;SDS011;66044;53.142;17.962;2023-05-10T12:13:38;7.80;;;2.00;;
77018;SDS011;66044;53.142;17.962;2023-05-10T12:16:13;6.70;;;1.80;;
77018;SDS011;66044;53.142;17.962;2023-05-10T12:18:40;5.70;;;1.70;;
77018;SDS011;66044;53.142;17.962;2023-05-10T12:21:09;10.30;;;2.50;;
77018;SDS011;66044;53.142;17.962;2023-05-10T12:23:37;6.90;;;1.90;;
77018;SDS011;66044;53.142;17.962;2023-05-10T12:26:05;6.80;;;1.80;;
77018;SDS011;66044;53.142;17.962;2023-05-10T12:28:32;8.80;;;1.80;;
77018;SDS011;66044;53.142;17.962;2023-05-10T12:30:59;4.70;;;1.50;;
77018;SDS011;66044;53.142;17.962;2023-05-10T12:33:26;6.90;;;1.90;;
77018;SDS011;66044;53.142;17.962;2023-05-10T12:35:53;6.20;;;1.70;;
77018;SDS011;66044;53.142;17.962;2023-05-10T12:38:24;8.20;;;2.00;;
77018;SDS011;66044;53.142;17.962;2023-05-10T12:40:51;8.70;;;2.00;;
77018;SDS011;66044;53.142;17.962;2023-05-10T12:43:17;8.00;;;1.90;;
77018;SDS011;66044;53.142;17.962;2023-05-10T12:45:44;7.70;;;1.80;;
77018;SDS011;66044;53.142;17.962;2023-05-10T12:48:14;8.60;;;1.90;;
77018;SDS011;66044;53.142;17.962;2023-05-10T12:50:41;7.10;;;1.90;;
77018;SDS011;66044;53.142;17.962;2023-05-10T12:53:07;6.60;;;1.80;;
77018;SDS011;66044;53.142;17.962;2023-05-10T12:55:34;8.40;;;2.00;;
77018;SDS011;66044;53.142;17.962;2023-05-10T12:58:01;6.10;;;1.80;;
77018;SDS011;66044;53.142;17.962;2023-05-10T13:00:27;6.30;;;1.50;;
77018;SDS011;66044;53.142;17.962;2023-05-10T13:02:53;5.50;;;1.60;;
77018;SDS011;66044;53.142;17.962;2023-05-10T13:05:20;10.20;;;1.90;;
77018;SDS011;66044;53.142;17.962;2023-05-10T13:07:46;5.70;;;1.40;;
77018;SDS011;66044;53.142;17.962;2023-05-10T13:10:13;7.20;;;1.90;;
77018;SDS011;66044;53.142;17.962;2023-05-10T13:12:39;7.40;;;1.70;;
77018;SDS011;66044;53.142;17.962;2023-05-10T13:15:06;5.10;;;1.60;;
77018;SDS011;66044;53.142;17.962;2023-05-10T13:17:33;8.30;;;2.00;;
77018;SDS011;66044;53.142;17.962;2023-05-10T13:20:00;6.90;;;2.10;;
77018;SDS011;66044;53.142;17.962;2023-05-10T13:22:26;7.10;;;1.70;;
77018;SDS011;66044;53.142;17.962;2023-05-10T13:24:53;6.00;;;1.40;;
77018;SDS011;66044;53.142;17.962;2023-05-10T13:27:19;7.10;;;1.80;;
77018;SDS011;66044;53.142;17.962;2023-05-10T13:29:46;5.80;;;1.70;;
77018;SDS011;66044;53.142;17.962;2023-05-10T13:32:12;6.40;;;1.80;;
77018;SDS011;66044;53.142;17.962;2023-05-10T13:34:38;5.70;;;1.70;;
77018;SDS011;66044;53.142;17.962;2023-05-10T13:37:05;10.60;;;2.40;;
77018;SDS011;66044;53.142;17.962;2023-05-10T13:39:31;7.10;;;1.70;;
77018;SDS011;66044;53.142;17.962;2023-05-10T13:42:00;7.00;;;2.30;;
77018;SDS011;66044;53.142;17.962;2023-05-10T13:44:26;6.10;;;2.00;;
77018;SDS011;66044;53.142;17.962;2023-05-10T13:46:53;6.50;;;2.00;;
77018;SDS011;66044;53.142;17.962;2023-05-10T13:49:19;7.50;;;2.10;;
77018;SDS011;66044;53.142;17.962;2023-05-10T13:51:46;6.80;;;1.80;;
77018;SDS011;66044;53.142;17.962;2023-05-10T13:54:12;8.50;;;2.10;;
77018;SDS011;66044;53.142;17.962;2023-05-10T13:56:39;8.10;;;2.20;;
77018;SDS011;66044;53.142;17.962;2023-05-10T13:59:07;9.30;;;2.10;;
77018;SDS011;66044;53.142;17.962;2023-05-10T14:01:33;8.20;;;1.90;;
77018;SDS011;66044;53.142;17.962;2023-05-10T14:04:00;6.30;;;1.80;;
77018;SDS011;66044;53.142;17.962;2023-05-10T14:06:26;5.70;;;2.20;;
77018;SDS011;66044;53.142;17.962;2023-05-10T14:08:53;6.00;;;1.90;;
77018;SDS011;66044;53.142;17.962;2023-05-10T14:11:19;7.90;;;2.10;;
77018;SDS011;66044;53.142;17.962;2023-05-10T14:13:46;6.90;;;2.10;;
77018;SDS011;66044;53.142;17.962;2023-05-10T14:16:12;7.70;;;2.00;;
77018;SDS011;66044;53.142;17.962;2023-05-10T14:18:40;8.20;;;1.90;;
77018;SDS011;66044;53.142;17.962;2023-05-10T14:21:07;8.10;;;1.90;;
77018;SDS011;66044;53.142;17.962;2023-05-10T14:23:33;5.70;;;2.10;;
77018;SDS011;66044;53.142;17.962;2023-05-10T14:26:00;7.20;;;2.10;;
77018;SDS011;66044;53.142;17.962;2023-05-10T14:28:26;6.50;;;1.80;;
77018;SDS011;66044;53.142;17.962;2023-05-10T14:30:52;8.40;;;1.60;;
77018;SDS011;66044;53.142;17.962;2023-05-10T14:33:19;6.40;;;2.00;;
77018;SDS011;66044;53.142;17.962;2023-05-10T14:35:46;8.80;;;2.20;;
77018;SDS011;66044;53.142;17.962;2023-05-10T14:38:13;8.70;;;2.20;;
77018;SDS011;66044;53.142;17.962;2023-05-10T14:40:40;8.30;;;2.20;;
77018;SDS011;66044;53.142;17.962;2023-05-10T14:43:07;6.20;;;1.80;;
77018;SDS011;66044;53.142;17.962;2023-05-10T14:45:33;7.40;;;2.20;;
77018;SDS011;66044;53.142;17.962;2023-05-10T14:48:00;8.50;;;1.90;;
77018;SDS011;66044;53.142;17.962;2023-05-10T14:50:27;7.70;;;2.00;;
77018;SDS011;66044;53.142;17.962;2023-05-10T14:52:53;8.50;;;2.00;;
77018;SDS011;66044;53.142;17.962;2023-05-10T14:55:19;7.90;;;1.80;;
77018;SDS011;66044;53.142;17.962;2023-05-10T14:57:46;7.80;;;1.90;;
77018;SDS011;66044;53.142;17.962;2023-05-10T15:00:13;8.30;;;2.20;;
77018;SDS011;66044;53.142;17.962;2023-05-10T15:02:41;7.80;;;2.10;;
77018;SDS011;66044;53.142;17.962;2023-05-10T15:05:08;6.20;;;2.00;;
77018;SDS011;66044;53.142;17.962;2023-05-10T15:07:34;10.40;;;2.50;;
77018;SDS011;66044;53.142;17.962;2023-05-10T15:10:01;9.10;;;1.70;;